sensor_id;sensor_type;location;lat;lon;timestamp;P1;durP1;ratioP1;P2;durP2;ratioP2
7128;SDS011;3606;52.930;8.644;2022-12-29T00:02:07;5.63;;;5.10;;
7128;SDS011;3606;52.930;8.644;2022-12-29T00:04:33;5.57;;;4.87;;
7128;SDS011;3606;52.930;8.644;2022-12-29T00:06:59;8.67;;;5.53;;
7128;SDS011;3606;52.930;8.644;2022-12-29T00:09:25;6.27;;;4.90;;
7128;SDS011;3606;52.930;8.644;2022-12-29T00:11:51;5.77;;;5.17;;
7128;SDS011;3606;52.930;8.644;2022-12-29T00:14:17;6.00;;;5.20;;
7128;SDS011;3606;52.930;8.644;2022-12-29T00:17:02;7.20;;;6.17;;
7128;SDS011;3606;52.930;8.644;2022-12-29T00:19:27;6.63;;;5.60;;
7128;SDS011;3606;52.930;8.644;2022-12-29T00:22:13;6.83;;;6.13;;
7128;SDS011;3606;52.930;8.644;2022-12-29T00:24:58;7.33;;;6.07;;
7128;SDS011;3606;52.930;8.644;2022-12-29T00:27:29;7.07;;;6.27;;
7128;SDS011;3606;52.930;8.644;2022-12-29T00:30:15;6.47;;;5.87;;
7128;SDS011;3606;52.930;8.644;2022-12-29T00:33:15;8.93;;;6.47;;
7128;SDS011;3606;52.930;8.644;2022-12-29T00:38:49;8.40;;;6.37;;
7128;SDS011;3606;52.930;8.644;2022-12-29T00:41:38;7.23;;;6.43;;
7128;SDS011;3606;52.930;8.644;2022-12-29T00:44:22;6.40;;;5.80;;
7128;SDS011;3606;52.930;8.644;2022-12-29T00:46:47;7.10;;;6.40;;
7128;SDS011;3606;52.930;8.644;2022-12-29T00:49:13;9.10;;;6.03;;
7128;SDS011;3606;52.930;8.644;2022-12-29T00:51:55;6.60;;;5.80;;
7128;SDS011;3606;52.930;8.644;2022-12-29T00:54:23;7.57;;;5.90;;
7128;SDS011;3606;52.930;8.644;2022-12-29T00:56:48;6.80;;;5.77;;
7128;SDS011;3606;52.930;8.644;2022-12-29T00:59:15;6.03;;;5.53;;
7128;SDS011;3606;52.930;8.644;2022-12-29T01:01:41;5.97;;;5.33;;
7128;SDS011;3606;52.930;8.644;2022-12-29T01:04:08;7.63;;;5.50;;
7128;SDS011;3606;52.930;8.644;2022-12-29T01:06:35;5.90;;;5.40;;
7128;SDS011;3606;52.930;8.644;2022-12-29T01:09:01;5.23;;;4.73;;
7128;SDS011;3606;52.930;8.644;2022-12-29T01:11:46;6.00;;;5.17;;
7128;SDS011;3606;52.930;8.644;2022-12-29T01:14:11;5.23;;;4.73;;
7128;SDS011;3606;52.930;8.644;2022-12-29T01:16:37;6.33;;;4.97;;
7128;SDS011;3606;52.930;8.644;2022-12-29T01:19:03;5.87;;;5.27;;
7128;SDS011;3606;52.930;8.644;2022-12-29T01:21:29;5.73;;;5.23;;
7128;SDS011;3606;52.930;8.644;2022-12-29T01:23:55;5.57;;;5.03;;
7128;SDS011;3606;52.930;8.644;2022-12-29T01:26:20;6.37;;;5.77;;
7128;SDS011;3606;52.930;8.644;2022-12-29T01:28:46;7.80;;;5.20;;
7128;SDS011;3606;52.930;8.644;2022-12-29T01:31:13;6.57;;;5.43;;
7128;SDS011;3606;52.930;8.644;2022-12-29T01:33:39;6.90;;;6.20;;
7128;SDS011;3606;52.930;8.644;2022-12-29T01:36:06;6.37;;;5.77;;
7128;SDS011;3606;52.930;8.644;2022-12-29T01:38:34;7.80;;;5.97;;
7128;SDS011;3606;52.930;8.644;2022-12-29T01:41:01;6.90;;;5.80;;
7128;SDS011;3606;52.930;8.644;2022-12-29T01:46:12;6.60;;;5.30;;
7128;SDS011;3606;52.930;8.644;2022-12-29T01:48:45;6.53;;;5.00;;
7128;SDS011;3606;52.930;8.644;2022-12-29T01:51:13;6.00;;;5.40;;
7128;SDS011;3606;52.930;8.644;2022-12-29T01:53:40;6.23;;;5.63;;
7128;SDS011;3606;52.930;8.644;2022-12-29T01:56:07;6.00;;;5.40;;
7128;SDS011;3606;52.930;8.644;2022-12-29T01:58:37;7.27;;;5.63;;
7128;SDS011;3606;52.930;8.644;2022-12-29T02:01:06;5.97;;;5.03;;
7128;SDS011;3606;52.930;8.644;2022-12-29T02:03:33;5.33;;;4.80;;
7128;SDS011;3606;52.930;8.644;2022-12-29T02:08:38;5.43;;;4.93;;
7128;SDS011;3606;52.930;8.644;2022-12-29T02:11:05;5.60;;;5.10;;
7128;SDS011;3606;52.930;8.644;2022-12-29T02:13:31;5.47;;;4.93;;
7128;SDS011;3606;52.930;8.644;2022-12-29T02:19:07;5.50;;;5.00;;
7128;SDS011;3606;52.930;8.644;2022-12-29T02:22:24;5.47;;;4.97;;
7128;SDS011;3606;52.930;8.644;2022-12-29T02:30:35;5.00;;;4.60;;
7128;SDS011;3606;52.930;8.644;2022-12-29T02:33:25;4.60;;;4.20;;
7128;SDS011;3606;52.930;8.644;2022-12-29T02:36:06;5.53;;;5.03;;
7128;SDS011;3606;52.930;8.644;2022-12-29T02:41:07;5.03;;;4.63;;
7128;SDS011;3606;52.930;8.644;2022-12-29T02:43:47;4.70;;;4.30;;
7128;SDS011;3606;52.930;8.644;2022-12-29T02:46:21;5.00;;;4.50;;
7128;SDS011;3606;52.930;8.644;2022-12-29T02:54:05;4.63;;;4.10;;
7128;SDS011;3606;52.930;8.644;2022-12-29T02:56:50;4.40;;;4.00;;
7128;SDS011;3606;52.930;8.644;2022-12-29T02:59:16;3.77;;;3.47;;
7128;SDS011;3606;52.930;8.644;2022-12-29T03:02:05;4.23;;;3.83;;
7128;SDS011;3606;52.930;8.644;2022-12-29T03:10:54;3.00;;;2.70;;
7128;SDS011;3606;52.930;8.644;2022-12-29T03:13:56;3.47;;;2.50;;
7128;SDS011;3606;52.930;8.644;2022-12-29T03:17:08;2.47;;;2.27;;
7128;SDS011;3606;52.930;8.644;2022-12-29T03:19:47;2.63;;;2.43;;
7128;SDS011;3606;52.930;8.644;2022-12-29T03:22:18;2.90;;;2.70;;
7128;SDS011;3606;52.930;8.644;2022-12-29T03:24:55;2.87;;;2.30;;
7128;SDS011;3606;52.930;8.644;2022-12-29T03:27:37;2.77;;;2.50;;
7128;SDS011;3606;52.930;8.644;2022-12-29T03:30:06;3.07;;;2.57;;
7128;SDS011;3606;52.930;8.644;2022-12-29T03:32:44;2.70;;;2.50;;
7128;SDS011;3606;52.930;8.644;2022-12-29T03:35:18;3.20;;;2.90;;
7128;SDS011;3606;52.930;8.644;2022-12-29T03:37:50;2.80;;;2.60;;
7128;SDS011;3606;52.930;8.644;2022-12-29T03:40:24;3.20;;;2.90;;
7128;SDS011;3606;52.930;8.644;2022-12-29T03:42:52;3.37;;;3.07;;
7128;SDS011;3606;52.930;8.644;2022-12-29T03:45:19;3.10;;;2.80;;
7128;SDS011;3606;52.930;8.644;2022-12-29T03:47:45;3.17;;;2.80;;
7128;SDS011;3606;52.930;8.644;2022-12-29T03:50:13;3.67;;;3.20;;
7128;SDS011;3606;52.930;8.644;2022-12-29T03:52:39;3.57;;;3.27;;
7128;SDS011;3606;52.930;8.644;2022-12-29T03:55:05;3.53;;;3.10;;
7128;SDS011;3606;52.930;8.644;2022-12-29T03:57:31;5.50;;;3.90;;
7128;SDS011;3606;52.930;8.644;2022-12-29T03:59:56;4.40;;;4.03;;
7128;SDS011;3606;52.930;8.644;2022-12-29T04:02:22;4.43;;;3.70;;
7128;SDS011;3606;52.930;8.644;2022-12-29T04:04:48;4.30;;;3.90;;
7128;SDS011;3606;52.930;8.644;2022-12-29T04:07:14;4.73;;;4.13;;
7128;SDS011;3606;52.930;8.644;2022-12-29T04:09:40;4.97;;;4.47;;
7128;SDS011;3606;52.930;8.644;2022-12-29T04:12:05;4.80;;;4.17;;
7128;SDS011;3606;52.930;8.644;2022-12-29T04:14:31;4.73;;;4.33;;
7128;SDS011;3606;52.930;8.644;2022-12-29T04:16:57;5.63;;;4.40;;
7128;SDS011;3606;52.930;8.644;2022-12-29T04:19:22;5.33;;;4.77;;
7128;SDS011;3606;52.930;8.644;2022-12-29T04:21:48;4.70;;;4.30;;
7128;SDS011;3606;52.930;8.644;2022-12-29T04:24:14;4.87;;;4.47;;
7128;SDS011;3606;52.930;8.644;2022-12-29T04:26:39;7.93;;;4.10;;
7128;SDS011;3606;52.930;8.644;2022-12-29T04:29:05;5.67;;;4.77;;
7128;SDS011;3606;52.930;8.644;2022-12-29T04:31:31;5.70;;;5.10;;
7128;SDS011;3606;52.930;8.644;2022-12-29T04:33:56;5.13;;;4.63;;
7128;SDS011;3606;52.930;8.644;2022-12-29T04:36:22;4.77;;;4.37;;
7128;SDS011;3606;52.930;8.644;2022-12-29T04:38:48;5.37;;;4.87;;
7128;SDS011;3606;52.930;8.644;2022-12-29T04:41:14;4.80;;;4.30;;
7128;SDS011;3606;52.930;8.644;2022-12-29T04:43:39;5.73;;;4.13;;
7128;SDS011;3606;52.930;8.644;2022-12-29T04:46:05;4.60;;;4.17;;
7128;SDS011;3606;52.930;8.644;2022-12-29T04:48:31;6.03;;;3.70;;
7128;SDS011;3606;52.930;8.644;2022-12-29T04:50:56;5.03;;;4.10;;
7128;SDS011;3606;52.930;8.644;2022-12-29T04:53:22;4.57;;;4.17;;
7128;SDS011;3606;52.930;8.644;2022-12-29T04:55:48;4.30;;;3.83;;
7128;SDS011;3606;52.930;8.644;2022-12-29T04:58:15;3.87;;;3.50;;
7128;SDS011;3606;52.930;8.644;2022-12-29T05:00:41;4.03;;;3.60;;
7128;SDS011;3606;52.930;8.644;2022-12-29T05:03:07;3.40;;;3.10;;
7128;SDS011;3606;52.930;8.644;2022-12-29T05:05:32;4.20;;;3.80;;
7128;SDS011;3606;52.930;8.644;2022-12-29T05:07:58;4.67;;;3.77;;
7128;SDS011;3606;52.930;8.644;2022-12-29T05:10:24;4.43;;;4.03;;
7128;SDS011;3606;52.930;8.644;2022-12-29T05:12:49;4.53;;;4.10;;
7128;SDS011;3606;52.930;8.644;2022-12-29T05:15:15;4.57;;;3.90;;
7128;SDS011;3606;52.930;8.644;2022-12-29T05:17:40;5.17;;;3.97;;
7128;SDS011;3606;52.930;8.644;2022-12-29T05:20:06;4.43;;;3.90;;
7128;SDS011;3606;52.930;8.644;2022-12-29T05:22:32;4.13;;;3.73;;
7128;SDS011;3606;52.930;8.644;2022-12-29T05:24:58;3.87;;;3.53;;
7128;SDS011;3606;52.930;8.644;2022-12-29T05:27:24;4.67;;;3.67;;
7128;SDS011;3606;52.930;8.644;2022-12-29T05:29:49;4.20;;;3.80;;
7128;SDS011;3606;52.930;8.644;2022-12-29T05:32:15;4.17;;;3.23;;
7128;SDS011;3606;52.930;8.644;2022-12-29T05:34:40;4.20;;;3.30;;
7128;SDS011;3606;52.930;8.644;2022-12-29T05:37:06;6.00;;;3.10;;
7128;SDS011;3606;52.930;8.644;2022-12-29T05:39:31;3.17;;;2.70;;
7128;SDS011;3606;52.930;8.644;2022-12-29T05:41:57;3.90;;;3.00;;
7128;SDS011;3606;52.930;8.644;2022-12-29T05:44:23;5.83;;;2.97;;
7128;SDS011;3606;52.930;8.644;2022-12-29T05:46:49;3.37;;;2.90;;
7128;SDS011;3606;52.930;8.644;2022-12-29T05:49:15;2.37;;;2.17;;
7128;SDS011;3606;52.930;8.644;2022-12-29T05:51:41;2.90;;;2.20;;
7128;SDS011;3606;52.930;8.644;2022-12-29T05:54:06;2.63;;;2.43;;
7128;SDS011;3606;52.930;8.644;2022-12-29T05:56:32;2.90;;;2.13;;
7128;SDS011;3606;52.930;8.644;2022-12-29T05:58:57;2.67;;;2.47;;
7128;SDS011;3606;52.930;8.644;2022-12-29T06:01:23;6.43;;;2.20;;
7128;SDS011;3606;52.930;8.644;2022-12-29T06:03:49;2.73;;;2.23;;
7128;SDS011;3606;52.930;8.644;2022-12-29T06:06:14;2.50;;;2.30;;
7128;SDS011;3606;52.930;8.644;2022-12-29T06:08:40;3.83;;;2.70;;
7128;SDS011;3606;52.930;8.644;2022-12-29T06:11:06;4.90;;;2.30;;
7128;SDS011;3606;52.930;8.644;2022-12-29T06:13:32;2.87;;;2.43;;
7128;SDS011;3606;52.930;8.644;2022-12-29T06:15:57;2.77;;;2.57;;
7128;SDS011;3606;52.930;8.644;2022-12-29T06:18:23;4.60;;;2.53;;
7128;SDS011;3606;52.930;8.644;2022-12-29T06:20:48;2.50;;;2.30;;
7128;SDS011;3606;52.930;8.644;2022-12-29T06:23:14;3.23;;;2.50;;
7128;SDS011;3606;52.930;8.644;2022-12-29T06:25:40;6.40;;;2.40;;
7128;SDS011;3606;52.930;8.644;2022-12-29T06:28:05;3.90;;;2.67;;
7128;SDS011;3606;52.930;8.644;2022-12-29T06:30:31;3.53;;;2.50;;
7128;SDS011;3606;52.930;8.644;2022-12-29T06:32:58;3.13;;;2.47;;
7128;SDS011;3606;52.930;8.644;2022-12-29T06:35:24;4.50;;;2.53;;
7128;SDS011;3606;52.930;8.644;2022-12-29T06:37:50;4.40;;;3.07;;
7128;SDS011;3606;52.930;8.644;2022-12-29T06:40:16;3.20;;;2.90;;
7128;SDS011;3606;52.930;8.644;2022-12-29T06:42:42;5.67;;;3.20;;
7128;SDS011;3606;52.930;8.644;2022-12-29T06:45:08;3.37;;;2.73;;
7128;SDS011;3606;52.930;8.644;2022-12-29T06:47:34;4.87;;;2.90;;
7128;SDS011;3606;52.930;8.644;2022-12-29T06:50:00;2.90;;;2.70;;
7128;SDS011;3606;52.930;8.644;2022-12-29T06:52:26;2.73;;;2.53;;
7128;SDS011;3606;52.930;8.644;2022-12-29T06:54:53;2.73;;;2.30;;
7128;SDS011;3606;52.930;8.644;2022-12-29T06:57:19;3.50;;;2.33;;
7128;SDS011;3606;52.930;8.644;2022-12-29T06:59:45;2.73;;;2.33;;
7128;SDS011;3606;52.930;8.644;2022-12-29T07:02:11;3.20;;;2.30;;
7128;SDS011;3606;52.930;8.644;2022-12-29T07:04:38;5.47;;;2.20;;
7128;SDS011;3606;52.930;8.644;2022-12-29T07:07:03;1.97;;;1.87;;
7128;SDS011;3606;52.930;8.644;2022-12-29T07:09:29;2.10;;;1.97;;
7128;SDS011;3606;52.930;8.644;2022-12-29T07:11:54;2.47;;;2.03;;
7128;SDS011;3606;52.930;8.644;2022-12-29T07:14:20;3.03;;;2.23;;
7128;SDS011;3606;52.930;8.644;2022-12-29T07:16:46;1.90;;;1.80;;
7128;SDS011;3606;52.930;8.644;2022-12-29T07:19:11;2.40;;;2.17;;
7128;SDS011;3606;52.930;8.644;2022-12-29T07:21:37;1.97;;;1.73;;
7128;SDS011;3606;52.930;8.644;2022-12-29T07:24:02;1.80;;;1.50;;
7128;SDS011;3606;52.930;8.644;2022-12-29T07:26:28;6.37;;;2.20;;
7128;SDS011;3606;52.930;8.644;2022-12-29T07:28:54;3.60;;;1.93;;
7128;SDS011;3606;52.930;8.644;2022-12-29T07:31:20;2.27;;;1.83;;
7128;SDS011;3606;52.930;8.644;2022-12-29T07:33:47;2.00;;;1.73;;
7128;SDS011;3606;52.930;8.644;2022-12-29T07:36:14;3.03;;;1.70;;
7128;SDS011;3606;52.930;8.644;2022-12-29T07:38:40;2.70;;;1.60;;
7128;SDS011;3606;52.930;8.644;2022-12-29T07:41:06;2.30;;;1.47;;
7128;SDS011;3606;52.930;8.644;2022-12-29T07:43:33;1.40;;;1.30;;
7128;SDS011;3606;52.930;8.644;2022-12-29T07:45:59;2.33;;;1.40;;
7128;SDS011;3606;52.930;8.644;2022-12-29T07:48:24;2.20;;;1.77;;
7128;SDS011;3606;52.930;8.644;2022-12-29T07:50:50;3.43;;;1.43;;
7128;SDS011;3606;52.930;8.644;2022-12-29T07:53:17;4.17;;;1.60;;
7128;SDS011;3606;52.930;8.644;2022-12-29T07:55:42;3.23;;;1.53;;
7128;SDS011;3606;52.930;8.644;2022-12-29T07:58:08;4.60;;;1.87;;
7128;SDS011;3606;52.930;8.644;2022-12-29T08:00:34;5.33;;;1.93;;
7128;SDS011;3606;52.930;8.644;2022-12-29T08:02:59;5.00;;;2.00;;
7128;SDS011;3606;52.930;8.644;2022-12-29T08:05:25;1.63;;;1.47;;
7128;SDS011;3606;52.930;8.644;2022-12-29T08:07:50;4.00;;;2.00;;
7128;SDS011;3606;52.930;8.644;2022-12-29T08:10:16;2.53;;;1.30;;
7128;SDS011;3606;52.930;8.644;2022-12-29T08:12:42;3.23;;;1.63;;
7128;SDS011;3606;52.930;8.644;2022-12-29T08:15:08;4.33;;;1.80;;
7128;SDS011;3606;52.930;8.644;2022-12-29T08:17:36;4.10;;;1.60;;
7128;SDS011;3606;52.930;8.644;2022-12-29T08:20:03;4.57;;;1.60;;
7128;SDS011;3606;52.930;8.644;2022-12-29T08:22:29;7.63;;;2.30;;
7128;SDS011;3606;52.930;8.644;2022-12-29T08:24:55;4.43;;;1.47;;
7128;SDS011;3606;52.930;8.644;2022-12-29T08:27:20;3.97;;;1.23;;
7128;SDS011;3606;52.930;8.644;2022-12-29T08:29:46;3.57;;;1.50;;
7128;SDS011;3606;52.930;8.644;2022-12-29T08:32:12;3.20;;;1.60;;
7128;SDS011;3606;52.930;8.644;2022-12-29T08:34:38;5.30;;;2.10;;
7128;SDS011;3606;52.930;8.644;2022-12-29T08:37:03;6.07;;;1.70;;
7128;SDS011;3606;52.930;8.644;2022-12-29T08:39:29;5.83;;;2.43;;
7128;SDS011;3606;52.930;8.644;2022-12-29T08:41:55;6.77;;;2.90;;
7128;SDS011;3606;52.930;8.644;2022-12-29T08:44:21;4.57;;;1.97;;
7128;SDS011;3606;52.930;8.644;2022-12-29T08:46:46;1.97;;;1.37;;
7128;SDS011;3606;52.930;8.644;2022-12-29T08:49:12;4.30;;;1.90;;
7128;SDS011;3606;52.930;8.644;2022-12-29T08:51:38;2.30;;;1.83;;
7128;SDS011;3606;52.930;8.644;2022-12-29T08:54:03;4.63;;;1.80;;
7128;SDS011;3606;52.930;8.644;2022-12-29T08:56:29;2.63;;;1.57;;
7128;SDS011;3606;52.930;8.644;2022-12-29T08:58:55;5.30;;;1.97;;
7128;SDS011;3606;52.930;8.644;2022-12-29T09:01:21;2.20;;;1.67;;
7128;SDS011;3606;52.930;8.644;2022-12-29T09:03:47;4.67;;;2.27;;
7128;SDS011;3606;52.930;8.644;2022-12-29T09:06:13;2.90;;;1.63;;
7128;SDS011;3606;52.930;8.644;2022-12-29T09:08:40;3.27;;;1.40;;
7128;SDS011;3606;52.930;8.644;2022-12-29T09:11:07;6.83;;;1.67;;
7128;SDS011;3606;52.930;8.644;2022-12-29T09:13:34;4.57;;;1.80;;
7128;SDS011;3606;52.930;8.644;2022-12-29T09:15:59;2.33;;;1.30;;
7128;SDS011;3606;52.930;8.644;2022-12-29T09:18:25;5.40;;;1.70;;
7128;SDS011;3606;52.930;8.644;2022-12-29T09:21:00;3.77;;;1.93;;
7128;SDS011;3606;52.930;8.644;2022-12-29T09:23:28;7.10;;;2.00;;
7128;SDS011;3606;52.930;8.644;2022-12-29T09:25:54;5.53;;;2.27;;
7128;SDS011;3606;52.930;8.644;2022-12-29T09:28:20;7.60;;;2.37;;
7128;SDS011;3606;52.930;8.644;2022-12-29T09:30:47;6.57;;;1.73;;
7128;SDS011;3606;52.930;8.644;2022-12-29T09:33:13;5.17;;;1.53;;
7128;SDS011;3606;52.930;8.644;2022-12-29T09:35:42;3.57;;;1.47;;
7128;SDS011;3606;52.930;8.644;2022-12-29T09:38:08;4.30;;;1.70;;
7128;SDS011;3606;52.930;8.644;2022-12-29T09:40:34;7.23;;;1.87;;
7128;SDS011;3606;52.930;8.644;2022-12-29T09:45:44;4.87;;;2.20;;
7128;SDS011;3606;52.930;8.644;2022-12-29T09:48:20;6.33;;;1.83;;
7128;SDS011;3606;52.930;8.644;2022-12-29T09:50:55;5.47;;;1.90;;
7128;SDS011;3606;52.930;8.644;2022-12-29T09:53:38;7.50;;;1.87;;
7128;SDS011;3606;52.930;8.644;2022-12-29T09:56:15;9.03;;;2.00;;
7128;SDS011;3606;52.930;8.644;2022-12-29T09:58:58;3.87;;;1.70;;
7128;SDS011;3606;52.930;8.644;2022-12-29T10:01:36;5.23;;;1.93;;
7128;SDS011;3606;52.930;8.644;2022-12-29T10:04:08;4.70;;;1.67;;
7128;SDS011;3606;52.930;8.644;2022-12-29T10:14:47;1.70;;;0.90;;
7128;SDS011;3606;52.930;8.644;2022-12-29T10:20:20;3.03;;;1.10;;
7128;SDS011;3606;52.930;8.644;2022-12-29T10:23:14;2.97;;;0.83;;
7128;SDS011;3606;52.930;8.644;2022-12-29T10:25:52;2.53;;;1.70;;
7128;SDS011;3606;52.930;8.644;2022-12-29T10:28:27;2.27;;;1.47;;
7128;SDS011;3606;52.930;8.644;2022-12-29T10:30:57;3.47;;;1.57;;
7128;SDS011;3606;52.930;8.644;2022-12-29T10:33:35;1.73;;;1.40;;
7128;SDS011;3606;52.930;8.644;2022-12-29T10:36:10;6.07;;;1.40;;
7128;SDS011;3606;52.930;8.644;2022-12-29T10:38:42;4.63;;;1.87;;
7128;SDS011;3606;52.930;8.644;2022-12-29T10:41:21;3.93;;;1.70;;
7128;SDS011;3606;52.930;8.644;2022-12-29T10:43:53;5.07;;;1.90;;
7128;SDS011;3606;52.930;8.644;2022-12-29T10:46:21;5.93;;;1.90;;
7128;SDS011;3606;52.930;8.644;2022-12-29T10:48:50;4.33;;;2.03;;
7128;SDS011;3606;52.930;8.644;2022-12-29T10:54:33;8.73;;;2.43;;
7128;SDS011;3606;52.930;8.644;2022-12-29T10:57:00;4.30;;;2.07;;
7128;SDS011;3606;52.930;8.644;2022-12-29T10:59:32;6.27;;;2.23;;
7128;SDS011;3606;52.930;8.644;2022-12-29T11:07:38;3.67;;;2.10;;
7128;SDS011;3606;52.930;8.644;2022-12-29T11:10:21;5.13;;;2.20;;
7128;SDS011;3606;52.930;8.644;2022-12-29T11:13:15;4.37;;;2.20;;
7128;SDS011;3606;52.930;8.644;2022-12-29T11:15:43;5.30;;;2.23;;
7128;SDS011;3606;52.930;8.644;2022-12-29T11:20:56;7.07;;;1.87;;
7128;SDS011;3606;52.930;8.644;2022-12-29T11:28:42;7.00;;;2.40;;
7128;SDS011;3606;52.930;8.644;2022-12-29T11:31:10;6.73;;;2.30;;
7128;SDS011;3606;52.930;8.644;2022-12-29T11:33:37;6.07;;;2.17;;
7128;SDS011;3606;52.930;8.644;2022-12-29T11:36:22;10.03;;;1.90;;
7128;SDS011;3606;52.930;8.644;2022-12-29T11:38:50;4.83;;;1.90;;
7128;SDS011;3606;52.930;8.644;2022-12-29T11:41:28;6.53;;;2.30;;
7128;SDS011;3606;52.930;8.644;2022-12-29T11:43:56;5.30;;;1.80;;
7128;SDS011;3606;52.930;8.644;2022-12-29T11:46:30;3.60;;;1.90;;
7128;SDS011;3606;52.930;8.644;2022-12-29T11:48:59;5.47;;;2.20;;
7128;SDS011;3606;52.930;8.644;2022-12-29T11:54:13;6.67;;;2.30;;
7128;SDS011;3606;52.930;8.644;2022-12-29T11:56:52;6.73;;;2.40;;
7128;SDS011;3606;52.930;8.644;2022-12-29T11:59:34;8.10;;;2.40;;
7128;SDS011;3606;52.930;8.644;2022-12-29T12:02:48;10.93;;;5.07;;
7128;SDS011;3606;52.930;8.644;2022-12-29T12:13:38;8.00;;;2.23;;
7128;SDS011;3606;52.930;8.644;2022-12-29T12:16:41;6.73;;;2.00;;
7128;SDS011;3606;52.930;8.644;2022-12-29T12:21:43;4.00;;;2.60;;
7128;SDS011;3606;52.930;8.644;2022-12-29T12:27:00;5.70;;;3.57;;
7128;SDS011;3606;52.930;8.644;2022-12-29T12:34:42;3.53;;;1.47;;
7128;SDS011;3606;52.930;8.644;2022-12-29T12:37:26;7.13;;;1.70;;
7128;SDS011;3606;52.930;8.644;2022-12-29T12:40:06;6.57;;;3.33;;
7128;SDS011;3606;52.930;8.644;2022-12-29T12:42:47;5.13;;;2.30;;
7128;SDS011;3606;52.930;8.644;2022-12-29T12:48:38;3.93;;;1.73;;
7128;SDS011;3606;52.930;8.644;2022-12-29T12:57:06;3.07;;;2.07;;
7128;SDS011;3606;52.930;8.644;2022-12-29T12:59:51;6.33;;;1.80;;
7128;SDS011;3606;52.930;8.644;2022-12-29T13:05:26;4.30;;;1.87;;
7128;SDS011;3606;52.930;8.644;2022-12-29T13:13:38;5.33;;;3.80;;
7128;SDS011;3606;52.930;8.644;2022-12-29T13:16:34;4.80;;;1.30;;
7128;SDS011;3606;52.930;8.644;2022-12-29T13:22:42;7.50;;;1.70;;
7128;SDS011;3606;52.930;8.644;2022-12-29T13:30:01;2.93;;;1.30;;
7128;SDS011;3606;52.930;8.644;2022-12-29T13:35:57;2.43;;;1.77;;
7128;SDS011;3606;52.930;8.644;2022-12-29T13:38:48;2.13;;;1.67;;
7128;SDS011;3606;52.930;8.644;2022-12-29T13:43:57;5.20;;;1.53;;
7128;SDS011;3606;52.930;8.644;2022-12-29T13:46:27;3.33;;;1.70;;
7128;SDS011;3606;52.930;8.644;2022-12-29T13:48:59;5.40;;;1.57;;
7128;SDS011;3606;52.930;8.644;2022-12-29T13:51:29;4.50;;;1.80;;
7128;SDS011;3606;52.930;8.644;2022-12-29T13:54:00;4.13;;;1.43;;
7128;SDS011;3606;52.930;8.644;2022-12-29T13:56:50;3.00;;;2.00;;
7128;SDS011;3606;52.930;8.644;2022-12-29T13:59:21;8.10;;;1.90;;
7128;SDS011;3606;52.930;8.644;2022-12-29T14:02:18;3.63;;;2.23;;
7128;SDS011;3606;52.930;8.644;2022-12-29T14:05:04;3.43;;;1.83;;
7128;SDS011;3606;52.930;8.644;2022-12-29T14:07:56;2.87;;;1.70;;
7128;SDS011;3606;52.930;8.644;2022-12-29T14:13:10;7.23;;;2.10;;
7128;SDS011;3606;52.930;8.644;2022-12-29T14:15:38;6.20;;;2.00;;
7128;SDS011;3606;52.930;8.644;2022-12-29T14:18:16;4.17;;;2.20;;
7128;SDS011;3606;52.930;8.644;2022-12-29T14:23:26;8.50;;;2.43;;
7128;SDS011;3606;52.930;8.644;2022-12-29T14:28:37;4.23;;;2.70;;
7128;SDS011;3606;52.930;8.644;2022-12-29T14:33:40;6.53;;;3.50;;
7128;SDS011;3606;52.930;8.644;2022-12-29T14:36:19;5.00;;;2.93;;
7128;SDS011;3606;52.930;8.644;2022-12-29T14:38:50;10.73;;;2.70;;
7128;SDS011;3606;52.930;8.644;2022-12-29T14:49:21;6.23;;;2.33;;
7128;SDS011;3606;52.930;8.644;2022-12-29T14:51:53;8.23;;;2.90;;
7128;SDS011;3606;52.930;8.644;2022-12-29T14:54:34;6.90;;;2.47;;
7128;SDS011;3606;52.930;8.644;2022-12-29T14:57:11;10.23;;;2.90;;
7128;SDS011;3606;52.930;8.644;2022-12-29T14:59:44;7.13;;;3.10;;
7128;SDS011;3606;52.930;8.644;2022-12-29T15:02:13;7.17;;;2.53;;
7128;SDS011;3606;52.930;8.644;2022-12-29T15:04:43;6.13;;;2.70;;
7128;SDS011;3606;52.930;8.644;2022-12-29T15:07:11;8.97;;;2.47;;
7128;SDS011;3606;52.930;8.644;2022-12-29T15:09:58;5.40;;;2.10;;
7128;SDS011;3606;52.930;8.644;2022-12-29T15:12:35;6.80;;;1.90;;
7128;SDS011;3606;52.930;8.644;2022-12-29T15:15:23;5.77;;;2.30;;
7128;SDS011;3606;52.930;8.644;2022-12-29T15:17:50;4.97;;;2.27;;
7128;SDS011;3606;52.930;8.644;2022-12-29T15:22:48;4.70;;;1.80;;
7128;SDS011;3606;52.930;8.644;2022-12-29T15:25:18;3.50;;;2.00;;
7128;SDS011;3606;52.930;8.644;2022-12-29T15:27:51;7.67;;;2.00;;
7128;SDS011;3606;52.930;8.644;2022-12-29T15:30:24;4.07;;;2.13;;
7128;SDS011;3606;52.930;8.644;2022-12-29T15:32:50;7.40;;;2.30;;
7128;SDS011;3606;52.930;8.644;2022-12-29T15:38:19;12.47;;;3.50;;
7128;SDS011;3606;52.930;8.644;2022-12-29T15:40:57;7.93;;;2.87;;
7128;SDS011;3606;52.930;8.644;2022-12-29T15:43:34;6.03;;;2.87;;
7128;SDS011;3606;52.930;8.644;2022-12-29T15:46:11;7.07;;;3.47;;
7128;SDS011;3606;52.930;8.644;2022-12-29T15:48:37;14.77;;;8.87;;
7128;SDS011;3606;52.930;8.644;2022-12-29T15:51:07;12.00;;;3.50;;
7128;SDS011;3606;52.930;8.644;2022-12-29T15:53:48;9.13;;;4.47;;
7128;SDS011;3606;52.930;8.644;2022-12-29T15:56:16;12.17;;;4.73;;
7128;SDS011;3606;52.930;8.644;2022-12-29T15:58:43;7.73;;;3.90;;
7128;SDS011;3606;52.930;8.644;2022-12-29T16:03:58;8.00;;;4.80;;
7128;SDS011;3606;52.930;8.644;2022-12-29T16:06:32;10.13;;;4.30;;
7128;SDS011;3606;52.930;8.644;2022-12-29T16:09:10;8.67;;;3.30;;
7128;SDS011;3606;52.930;8.644;2022-12-29T16:11:55;5.43;;;2.80;;
7128;SDS011;3606;52.930;8.644;2022-12-29T16:14:25;10.77;;;3.60;;
7128;SDS011;3606;52.930;8.644;2022-12-29T16:16:59;8.87;;;3.20;;
7128;SDS011;3606;52.930;8.644;2022-12-29T16:19:31;5.93;;;2.80;;
7128;SDS011;3606;52.930;8.644;2022-12-29T16:22:00;7.93;;;3.10;;
7128;SDS011;3606;52.930;8.644;2022-12-29T16:24:31;10.13;;;5.07;;
7128;SDS011;3606;52.930;8.644;2022-12-29T16:29:32;9.23;;;3.93;;
7128;SDS011;3606;52.930;8.644;2022-12-29T16:31:58;13.83;;;7.07;;
7128;SDS011;3606;52.930;8.644;2022-12-29T16:39:46;11.63;;;4.50;;
7128;SDS011;3606;52.930;8.644;2022-12-29T16:45:09;9.50;;;4.20;;
7128;SDS011;3606;52.930;8.644;2022-12-29T16:50:31;20.63;;;10.23;;
7128;SDS011;3606;52.930;8.644;2022-12-29T16:52:58;16.83;;;8.53;;
7128;SDS011;3606;52.930;8.644;2022-12-29T16:55:24;13.47;;;4.97;;
7128;SDS011;3606;52.930;8.644;2022-12-29T16:57:51;10.47;;;4.60;;
7128;SDS011;3606;52.930;8.644;2022-12-29T17:00:22;13.93;;;6.50;;
7128;SDS011;3606;52.930;8.644;2022-12-29T17:02:49;11.50;;;4.90;;
7128;SDS011;3606;52.930;8.644;2022-12-29T17:05:18;9.83;;;5.53;;
7128;SDS011;3606;52.930;8.644;2022-12-29T17:07:44;17.77;;;7.73;;
7128;SDS011;3606;52.930;8.644;2022-12-29T17:10:10;8.80;;;5.50;;
7128;SDS011;3606;52.930;8.644;2022-12-29T17:12:37;12.57;;;7.40;;
7128;SDS011;3606;52.930;8.644;2022-12-29T17:15:05;12.33;;;5.13;;
7128;SDS011;3606;52.930;8.644;2022-12-29T17:22:42;8.67;;;4.23;;
7128;SDS011;3606;52.930;8.644;2022-12-29T17:25:11;9.40;;;4.07;;
7128;SDS011;3606;52.930;8.644;2022-12-29T17:27:43;10.93;;;5.00;;
7128;SDS011;3606;52.930;8.644;2022-12-29T17:30:14;13.20;;;5.57;;
7128;SDS011;3606;52.930;8.644;2022-12-29T17:32:42;8.77;;;4.07;;
7128;SDS011;3606;52.930;8.644;2022-12-29T17:35:18;8.57;;;3.83;;
7128;SDS011;3606;52.930;8.644;2022-12-29T17:37:45;10.20;;;5.83;;
7128;SDS011;3606;52.930;8.644;2022-12-29T17:40:18;9.30;;;3.17;;
7128;SDS011;3606;52.930;8.644;2022-12-29T17:42:55;10.53;;;4.90;;
7128;SDS011;3606;52.930;8.644;2022-12-29T17:45:23;5.17;;;3.50;;
7128;SDS011;3606;52.930;8.644;2022-12-29T17:47:53;4.70;;;3.13;;
7128;SDS011;3606;52.930;8.644;2022-12-29T17:50:19;5.27;;;3.27;;
7128;SDS011;3606;52.930;8.644;2022-12-29T17:52:50;6.20;;;2.80;;
7128;SDS011;3606;52.930;8.644;2022-12-29T17:55:18;6.60;;;3.00;;
7128;SDS011;3606;52.930;8.644;2022-12-29T17:57:45;5.43;;;2.63;;
7128;SDS011;3606;52.930;8.644;2022-12-29T18:00:15;7.00;;;3.10;;
7128;SDS011;3606;52.930;8.644;2022-12-29T18:02:52;5.20;;;2.70;;
7128;SDS011;3606;52.930;8.644;2022-12-29T18:05:21;7.13;;;4.27;;
7128;SDS011;3606;52.930;8.644;2022-12-29T18:07:53;8.60;;;3.93;;
7128;SDS011;3606;52.930;8.644;2022-12-29T18:10:20;3.83;;;2.50;;
7128;SDS011;3606;52.930;8.644;2022-12-29T18:12:47;5.43;;;3.30;;
7128;SDS011;3606;52.930;8.644;2022-12-29T18:15:30;6.63;;;3.17;;
7128;SDS011;3606;52.930;8.644;2022-12-29T18:18:08;7.30;;;3.20;;